Time;durP1;ratioP1;P1;durP2;ratioP2;P2;SDS_P1;SDS_P2;PMS_P1;PMS_P2;Temp;Humidity;BMP_temperature;BMP_pressure;BME280_temperature;BME280_humidity;BME280_pressure;Samples;Min_cycle;Max_cycle;Signal;HPM_P1;HPM_P2
2021/12/27 00:00:42;;;;;;;21.20;12.03;;;-1.10;99.90;;;;;;5124830;28;20192;-59
2021/12/27 00:03:08;;;;;;;;;;;-1.10;99.90;;;;;;5142919;28;20043;-59
2021/12/27 00:05:34;;;;;;;18.83;11.50;;;-1.10;99.90;;;;;;5142668;27;19919;-59
2021/12/27 00:07:59;;;;;;;22.55;12.32;;;-1.10;99.90;;;;;;5124561;28;20039;-60
2021/12/27 00:10:28;;;;;;;19.07;11.57;;;-1.10;99.90;;;;;;5143016;28;20062;-59
2021/12/27 00:12:55;;;;;;;19.60;11.35;;;-1.20;99.90;;;;;;5143247;28;20043;-59
2021/12/27 00:15:20;;;;;;;;;;;-1.10;99.90;;;;;;5123981;28;20051;-59
2021/12/27 00:17:47;;;;;;;17.42;11.50;;;-1.10;99.90;;;;;;5143157;27;19993;-59
2021/12/27 00:20:14;;;;;;;21.52;12.43;;;-1.20;99.90;;;;;;5143274;27;20335;-59
2021/12/27 00:22:41;;;;;;;18.85;11.20;;;-1.10;99.90;;;;;;5143505;28;20067;-59
2021/12/27 00:25:08;;;;;;;18.80;11.98;;;-1.10;99.90;;;;;;5139836;28;20061;-59
2021/12/27 00:27:34;;;;;;;17.70;12.30;;;-1.10;99.90;;;;;;5105609;28;20052;-59
2021/12/27 00:30:00;;;;;;;20.97;12.23;;;-1.10;99.90;;;;;;5128893;28;20045;-59
2021/12/27 00:32:26;;;;;;;18.60;11.68;;;-1.10;99.90;;;;;;5143393;28;20285;-60
2021/12/27 00:34:51;;;;;;;22.38;12.07;;;-1.10;99.90;;;;;;5142340;28;20078;-60
2021/12/27 00:37:17;;;;;;;18.10;11.87;;;-1.10;99.90;;;;;;5124400;28;20076;-59
2021/12/27 00:39:42;;;;;;;19.60;11.37;;;-1.10;99.90;;;;;;5143115;28;20058;-59
2021/12/27 00:42:08;;;;;;;19.30;11.93;;;-1.10;99.90;;;;;;5142645;28;20130;-59
2021/12/27 00:44:34;;;;;;;19.63;12.33;;;-1.10;99.90;;;;;;5124559;27;20068;-59
2021/12/27 00:47:00;;;;;;;19.83;12.10;;;-1.10;99.90;;;;;;5141783;28;20039;-59
2021/12/27 00:49:26;;;;;;;;;;;-1.20;99.90;;;;;;5143508;28;20121;-59
2021/12/27 00:51:52;;;;;;;20.80;12.05;;;-1.20;99.90;;;;;;5142999;28;19919;-59
2021/12/27 00:54:18;;;;;;;21.63;11.65;;;-1.20;99.90;;;;;;5143123;28;20039;-60
2021/12/27 00:56:44;;;;;;;18.03;11.43;;;-1.20;99.90;;;;;;5122486;28;20137;-60
2021/12/27 00:59:10;;;;;;;17.90;12.07;;;-1.20;99.90;;;;;;5110488;28;20047;-59
2021/12/27 01:01:36;;;;;;;18.52;12.40;;;-1.20;99.90;;;;;;5116978;28;20085;-59
2021/12/27 01:04:03;;;;;;;19.85;11.38;;;-1.30;99.90;;;;;;5124344;28;20059;-59
2021/12/27 01:06:29;;;;;;;17.80;11.93;;;-1.30;99.90;;;;;;5106728;28;20054;-60
2021/12/27 01:08:55;;;;;;;16.13;11.20;;;-1.30;99.90;;;;;;5115452;28;20115;-60
2021/12/27 01:11:27;;;;;;;20.77;12.23;;;-1.30;99.90;;;;;;5143074;28;20111;-60
2021/12/27 01:14:09;;;;;;;17.85;11.52;;;-1.30;99.90;;;;;;5142987;28;20046;-59
2021/12/27 01:16:35;;;;;;;19.80;12.50;;;-1.30;99.90;;;;;;5125250;27;20051;-60
2021/12/27 01:19:00;;;;;;;20.15;12.45;;;-1.40;99.90;;;;;;5126595;27;20039;-60
2021/12/27 01:21:27;;;;;;;20.53;12.07;;;-1.40;99.90;;;;;;5127619;27;20057;-60
2021/12/27 01:23:54;;;;;;;18.83;12.32;;;-1.40;99.90;;;;;;5127975;27;20051;-59
2021/12/27 01:26:20;;;;;;;19.00;11.85;;;-1.40;99.90;;;;;;5127567;27;20067;-60
2021/12/27 01:28:46;;;;;;;20.42;12.75;;;-1.40;99.90;;;;;;5137054;27;20066;-60
2021/12/27 01:31:12;;;;;;;18.50;11.93;;;-1.40;99.90;;;;;;5138484;27;20071;-60
2021/12/27 01:33:39;;;;;;;21.52;12.02;;;-1.40;99.90;;;;;;5146509;27;20039;-60
2021/12/27 01:36:06;;;;;;;19.60;12.70;;;-1.40;99.90;;;;;;5146444;27;20039;-60
2021/12/27 01:38:35;;;;;;;21.10;12.75;;;-1.40;99.90;;;;;;5145158;27;20066;-59
2021/12/27 01:41:01;;;;;;;21.35;12.52;;;-1.40;99.90;;;;;;5126696;27;20071;-60
2021/12/27 01:43:29;;;;;;;21.00;12.68;;;-1.40;99.90;;;;;;5115732;27;20108;-60
2021/12/27 01:46:07;;;;;;;19.38;12.40;;;-1.40;99.90;;;;;;5127586;27;20125;-60
2021/12/27 01:48:38;;;;;;;20.00;13.13;;;-1.50;99.90;;;;;;5145781;27;20043;-60
2021/12/27 01:51:08;;;;;;;20.38;12.50;;;-1.50;99.90;;;;;;5130545;27;20048;-60
2021/12/27 01:53:35;;;;;;;20.05;12.45;;;-1.40;99.90;;;;;;5125681;27;20039;-60
2021/12/27 01:56:03;;;;;;;22.33;12.10;;;-1.40;99.90;;;;;;5126947;27;20074;-59
2021/12/27 01:58:29;;;;;;;22.80;13.63;;;-1.40;99.90;;;;;;5126729;27;20051;-60
2021/12/27 02:00:57;;;;;;;18.67;12.13;;;-1.40;99.90;;;;;;5143170;27;20050;-60
2021/12/27 02:03:25;;;;;;;20.63;13.05;;;-1.40;99.90;;;;;;5145590;27;20047;-59
2021/12/27 02:05:51;;;;;;;22.00;13.30;;;-1.40;99.90;;;;;;5112406;28;20047;-59
2021/12/27 02:08:17;;;;;;;20.55;13.07;;;-1.40;99.90;;;;;;5129545;27;20103;-59
2021/12/27 02:10:43;;;;;;;20.75;13.18;;;-1.40;99.90;;;;;;5144841;27;20091;-60
2021/12/27 02:13:10;;;;;;;20.40;13.35;;;-1.40;99.90;;;;;;5126846;27;20043;-59
2021/12/27 02:15:36;;;;;;;23.33;13.77;;;-1.30;99.90;;;;;;5145600;27;20051;-60
2021/12/27 02:18:03;;;;;;;22.58;13.88;;;-1.40;99.90;;;;;;5145620;27;20074;-60
2021/12/27 02:20:32;;;;;;;22.23;13.50;;;-1.40;99.90;;;;;;5144689;27;20051;-60
2021/12/27 02:23:01;;;;;;;21.60;12.70;;;-1.40;99.90;;;;;;5143176;27;20043;-60
2021/12/27 02:25:29;;;;;;;23.08;13.68;;;-1.30;99.90;;;;;;5126222;27;20055;-60
2021/12/27 02:27:56;;;;;;;20.90;13.52;;;-1.30;99.90;;;;;;5126243;27;20066;-60
2021/12/27 02:30:23;;;;;;;24.25;13.93;;;-1.30;99.90;;;;;;5144708;27;20043;-60
2021/12/27 02:32:54;;;;;;;22.25;14.23;;;-1.30;99.90;;;;;;5139156;27;20039;-60
2021/12/27 02:35:23;;;;;;;25.77;14.45;;;-1.30;99.90;;;;;;5142144;27;20062;-60
2021/12/27 02:37:49;;;;;;;21.15;13.65;;;-1.30;99.90;;;;;;5126207;27;20055;-60
2021/12/27 02:40:16;;;;;;;21.67;14.13;;;-1.30;99.90;;;;;;5126441;27;20134;-60
2021/12/27 02:43:16;;;;;;;21.83;14.27;;;-1.30;99.90;;;;;;5143943;27;20051;-60
2021/12/27 02:45:50;;;;;;;24.40;14.43;;;-1.30;99.90;;;;;;5059742;28;20159;-60
2021/12/27 02:48:22;;;;;;;27.08;14.38;;;-1.30;99.90;;;;;;5044415;28;20408;-60
2021/12/27 02:50:49;;;;;;;21.38;14.15;;;-1.20;99.90;;;;;;5061335;28;20049;-60
2021/12/27 02:53:16;;;;;;;21.17;13.57;;;-1.30;99.90;;;;;;5039732;28;20125;-60
2021/12/27 02:55:42;;;;;;;20.73;13.43;;;-1.20;99.90;;;;;;5042270;28;20064;-60
2021/12/27 02:58:08;;;;;;;22.65;14.60;;;-1.30;99.90;;;;;;5024738;28;20076;-60
2021/12/27 03:00:40;;;;;;;23.73;14.23;;;-1.20;99.90;;;;;;5060514;28;20049;-60
2021/12/27 03:03:06;;;;;;;23.60;14.57;;;-1.20;99.90;;;;;;5044253;28;20061;-59
2021/12/27 03:05:32;;;;;;;22.65;13.32;;;-1.30;99.90;;;;;;5058534;28;20198;-60
2021/12/27 03:08:01;;;;;;;22.30;13.93;;;-1.20;99.90;;;;;;5060371;28;20085;-60
2021/12/27 03:10:32;;;;;;;26.00;14.60;;;-1.20;99.90;;;;;;5060582;28;20048;-60
2021/12/27 03:13:00;;;;;;;21.73;14.10;;;-1.20;99.90;;;;;;5044099;28;20091;-60
2021/12/27 03:15:26;;;;;;;24.90;14.10;;;-1.20;99.90;;;;;;5043313;28;20118;-60
2021/12/27 03:17:54;;;;;;;23.95;14.77;;;-1.20;99.90;;;;;;5060618;28;20041;-60
2021/12/27 03:20:27;;;;;;;20.75;13.27;;;-1.20;99.90;;;;;;5042139;28;20049;-60
2021/12/27 03:22:53;;;;;;;24.63;14.43;;;-1.20;99.90;;;;;;5133450;27;20099;-60
2021/12/27 03:25:22;;;;;;;25.90;14.75;;;-1.20;99.90;;;;;;5143681;27;20036;-60
2021/12/27 03:27:49;;;;;;;22.70;14.65;;;-1.20;99.90;;;;;;5106040;28;20103;-60
2021/12/27 03:30:24;;;;;;;24.10;14.23;;;-1.10;99.90;;;;;;5118792;27;20124;-60
2021/12/27 03:32:51;;;;;;;25.80;14.90;;;-1.20;99.90;;;;;;5113863;28;20130;-60
2021/12/27 03:35:25;;;;;;;24.92;14.98;;;-1.10;99.90;;;;;;5113240;27;20054;-60
2021/12/27 03:37:53;;;;;;;22.40;13.95;;;-1.10;99.90;;;;;;5129314;27;20066;-60
2021/12/27 03:40:21;;;;;;;23.40;15.43;;;-1.10;99.90;;;;;;5123060;27;20062;-60
2021/12/27 03:42:50;;;;;;;22.85;14.45;;;-1.10;99.90;;;;;;5143714;27;20059;-60
2021/12/27 03:45:29;;;;;;;23.35;13.80;;;-1.10;99.90;;;;;;5116829;27;20055;-60
2021/12/27 03:47:55;;;;;;;23.25;14.43;;;-1.10;99.90;;;;;;5116832;28;20045;-60
2021/12/27 03:50:20;;;;;;;23.38;14.68;;;-1.10;99.90;;;;;;5139658;27;20062;-60
2021/12/27 03:52:47;;;;;;;25.60;14.47;;;-1.00;99.90;;;;;;5121637;28;20101;-60
2021/12/27 03:55:13;;;;;;;25.25;15.25;;;-1.00;99.90;;;;;;5138171;27;20672;-60
2021/12/27 03:57:41;;;;;;;;;;;-1.00;99.90;;;;;;5123510;27;20366;-60
2021/12/27 04:02:51;;;;;;;25.42;15.05;;;-1.10;99.90;;;;;;5143638;28;19991;-60
2021/12/27 04:05:18;;;;;;;25.63;15.57;;;-1.00;99.90;;;;;;5119653;28;20044;-60
2021/12/27 04:07:45;;;;;;;;;;;-1.00;99.90;;;;;;5124759;28;20055;-60
2021/12/27 04:10:12;;;;;;;24.70;14.48;;;-1.00;99.90;;;;;;5123310;28;19930;-60
2021/12/27 04:12:38;;;;;;;24.15;14.40;;;-0.90;99.90;;;;;;5124718;28;20051;-60
2021/12/27 04:15:07;;;;;;;26.15;15.80;;;-0.90;99.90;;;;;;5143787;27;20039;-60
2021/12/27 04:17:34;;;;;;;26.27;15.15;;;-1.00;99.90;;;;;;5143293;27;20401;-59
2021/12/27 04:19:59;;;;;;;22.30;14.57;;;-0.90;99.90;;;;;;5123892;28;20043;-60
2021/12/27 04:22:25;;;;;;;23.98;15.65;;;-0.90;99.90;;;;;;5122735;28;20117;-60
2021/12/27 04:24:51;;;;;;;25.42;15.52;;;-0.90;99.90;;;;;;5110763;28;20036;-60
2021/12/27 04:27:17;;;;;;;25.63;15.73;;;-0.90;99.90;;;;;;5124568;28;20047;-60
2021/12/27 04:29:43;;;;;;;25.97;15.83;;;-0.90;99.90;;;;;;5123873;28;20058;-60
2021/12/27 04:32:09;;;;;;;24.08;14.82;;;-0.90;99.90;;;;;;5137173;28;20084;-60
2021/12/27 04:34:35;;;;;;;26.23;15.80;;;-0.90;99.90;;;;;;5143315;28;20062;-60
2021/12/27 04:37:01;;;;;;;23.70;14.57;;;-0.80;99.90;;;;;;5143260;28;20062;-60
2021/12/27 04:39:26;;;;;;;26.33;15.82;;;-0.80;99.90;;;;;;5142714;28;20043;-60
2021/12/27 04:41:53;;;;;;;25.80;16.77;;;-0.80;99.90;;;;;;5118333;28;20100;-60
2021/12/27 04:44:19;;;;;;;27.70;16.77;;;-0.80;99.90;;;;;;5143280;28;20058;-60
2021/12/27 04:46:45;;;;;;;32.63;16.87;;;-0.80;99.90;;;;;;5143091;28;20036;-60
2021/12/27 04:49:10;;;;;;;28.20;17.33;;;-0.80;99.90;;;;;;5143005;28;20043;-60
2021/12/27 04:51:36;;;;;;;23.50;15.83;;;-0.80;99.90;;;;;;5143127;27;20051;-60
2021/12/27 04:54:02;;;;;;;33.03;17.10;;;-0.70;99.90;;;;;;5147352;27;20058;-60
2021/12/27 04:56:28;;;;;;;26.83;16.90;;;-0.70;99.90;;;;;;5147177;27;20039;-60
2021/12/27 04:58:53;;;;;;;31.70;17.10;;;-0.70;99.90;;;;;;5128246;27;20074;-60
2021/12/27 05:01:19;;;;;;;32.13;17.17;;;-0.70;99.90;;;;;;5128216;27;20049;-60
2021/12/27 05:03:45;;;;;;;26.20;16.60;;;-0.70;99.90;;;;;;5127921;27;20051;-60
2021/12/27 05:06:13;;;;;;;25.97;16.83;;;-0.70;99.90;;;;;;5127847;27;20063;-60
2021/12/27 05:08:40;;;;;;;27.80;15.63;;;-0.70;99.90;;;;;;5146516;27;20043;-60
2021/12/27 05:11:06;;;;;;;24.45;16.27;;;-0.70;99.90;;;;;;5110352;27;20039;-60
2021/12/27 05:13:32;;;;;;;28.70;16.95;;;-0.70;99.90;;;;;;5126680;27;20041;-60
2021/12/27 05:16:00;;;;;;;25.33;16.10;;;-0.60;99.90;;;;;;5110902;27;20432;-60
2021/12/27 05:18:26;;;;;;;26.52;16.38;;;-0.60;99.90;;;;;;5146359;27;20072;-60
2021/12/27 05:20:51;;;;;;;26.90;15.98;;;-0.60;99.90;;;;;;5146302;27;20039;-60
2021/12/27 05:23:17;;;;;;;26.03;16.17;;;-0.60;99.90;;;;;;5125832;27;20051;-60
2021/12/27 05:25:43;;;;;;;28.70;16.83;;;-0.60;99.90;;;;;;5120939;27;20360;-60
2021/12/27 05:28:09;;;;;;;26.70;16.77;;;-0.60;99.90;;;;;;5127360;27;20076;-61
2021/12/27 05:30:35;;;;;;;27.42;16.50;;;-0.60;99.90;;;;;;5146841;27;20106;-60
2021/12/27 05:33:02;;;;;;;29.52;17.30;;;-0.50;99.90;;;;;;5127207;27;20050;-60
2021/12/27 05:35:27;;;;;;;29.60;16.98;;;-0.50;99.90;;;;;;5146295;27;20055;-60
2021/12/27 05:37:53;;;;;;;27.10;16.80;;;-0.50;99.90;;;;;;5145855;27;20121;-60
2021/12/27 05:40:22;;;;;;;28.50;16.73;;;-0.50;99.90;;;;;;5146122;27;20031;-60
2021/12/27 05:42:53;;;;;;;31.05;18.35;;;-0.50;99.90;;;;;;5145821;27;20055;-60
2021/12/27 05:45:20;;;;;;;27.27;17.30;;;-0.50;99.90;;;;;;5139037;27;20051;-60
2021/12/27 05:47:45;;;;;;;29.85;18.35;;;-0.50;99.90;;;;;;5140347;27;20058;-60
2021/12/27 05:50:14;;;;;;;31.50;18.43;;;-0.50;99.90;;;;;;5127344;27;20375;-60
2021/12/27 05:52:40;;;;;;;29.63;17.98;;;-0.40;99.90;;;;;;5145559;27;20054;-60
2021/12/27 05:55:08;;;;;;;31.38;18.92;;;-0.40;99.90;;;;;;5127135;27;20096;-60
2021/12/27 05:57:34;;;;;;;29.83;18.67;;;-0.40;99.90;;;;;;5137852;27;20051;-60
2021/12/27 06:00:01;;;;;;;32.08;19.08;;;-0.40;99.90;;;;;;5146065;27;20107;-60
2021/12/27 06:02:26;;;;;;;34.25;20.42;;;-0.40;99.90;;;;;;5124385;27;20047;-60
2021/12/27 06:04:52;;;;;;;36.47;20.77;;;-0.50;99.90;;;;;;5126761;27;20119;-60
2021/12/27 06:07:18;;;;;;;34.10;20.27;;;-0.50;99.90;;;;;;5114607;28;20062;-60
2021/12/27 06:09:49;;;;;;;37.47;21.70;;;-0.40;99.90;;;;;;5136362;27;20035;-60
2021/12/27 06:12:14;;;;;;;37.85;22.50;;;-0.50;99.90;;;;;;5141596;27;20054;-60
2021/12/27 06:14:40;;;;;;;37.73;22.50;;;-0.50;99.90;;;;;;5126707;27;20052;-60
2021/12/27 06:17:06;;;;;;;38.47;22.63;;;-0.50;99.90;;;;;;5144719;27;20042;-60
2021/12/27 06:19:31;;;;;;;37.83;22.00;;;-0.50;99.90;;;;;;5145457;27;20035;-60
2021/12/27 06:21:58;;;;;;;41.47;23.93;;;-0.50;99.90;;;;;;5144323;27;20065;-60
2021/12/27 06:24:24;;;;;;;46.00;23.45;;;-0.50;99.90;;;;;;5126881;27;20285;-61
2021/12/27 06:26:50;;;;;;;43.78;24.98;;;-0.50;99.90;;;;;;5145139;27;20050;-60
2021/12/27 06:29:16;;;;;;;39.72;24.02;;;-0.50;99.90;;;;;;5108522;28;20126;-60
2021/12/27 06:31:42;;;;;;;51.05;24.63;;;-0.50;99.90;;;;;;5135045;27;20043;-60
2021/12/27 06:34:08;;;;;;;49.97;24.17;;;-0.50;99.90;;;;;;5145144;27;20100;-60
2021/12/27 06:36:33;;;;;;;47.90;23.75;;;-0.50;99.90;;;;;;5125920;27;20129;-60
2021/12/27 06:39:00;;;;;;;46.90;24.73;;;-0.40;99.90;;;;;;5122382;27;20867;-60
2021/12/27 06:41:25;;;;;;;;;;;-0.40;99.90;;;;;;5113010;27;20050;-60
2021/12/27 06:43:52;;;;;;;46.35;24.05;;;-0.40;99.90;;;;;;5143013;27;19972;-61
2021/12/27 06:46:18;;;;;;;48.90;25.13;;;-0.40;99.90;;;;;;5110529;27;20051;-60
2021/12/27 06:48:44;;;;;;;50.22;25.13;;;-0.40;99.90;;;;;;5130474;27;20119;-60
2021/12/27 06:51:09;;;;;;;49.83;25.33;;;-0.40;99.90;;;;;;5140810;27;20043;-60
2021/12/27 06:53:35;;;;;;;49.23;25.07;;;-0.40;99.90;;;;;;5135651;27;20046;-60
2021/12/27 06:56:02;;;;;;;58.73;26.13;;;-0.40;99.90;;;;;;5125922;27;20069;-61
2021/12/27 06:58:28;;;;;;;55.20;26.40;;;-0.40;99.90;;;;;;5144459;27;20071;-61
2021/12/27 07:00:54;;;;;;;51.28;25.58;;;-0.30;99.90;;;;;;5133908;27;20066;-61
2021/12/27 07:03:20;;;;;;;56.97;26.25;;;-0.30;99.90;;;;;;5126172;27;20438;-61
2021/12/27 07:05:46;;;;;;;45.97;25.05;;;-0.30;99.90;;;;;;5144212;27;20043;-61
2021/12/27 07:08:11;;;;;;;50.27;25.23;;;-0.30;99.90;;;;;;5144503;27;20042;-61
2021/12/27 07:10:38;;;;;;;49.35;24.45;;;-0.30;99.90;;;;;;5120046;28;20405;-61
2021/12/27 07:13:04;;;;;;;54.85;25.40;;;-0.30;99.90;;;;;;5124237;28;20031;-61
2021/12/27 07:15:30;;;;;;;47.88;25.35;;;-0.30;99.90;;;;;;5140957;27;20182;-60
2021/12/27 07:17:57;;;;;;;54.00;24.88;;;-0.30;99.90;;;;;;5128911;27;20057;-59
2021/12/27 07:20:23;;;;;;;;;;;-0.30;99.90;;;;;;5144438;27;20047;-62
2021/12/27 07:22:49;;;;;;;49.38;24.63;;;-0.30;99.90;;;;;;5106854;28;19983;-59
2021/12/27 07:25:16;;;;;;;;;;;-0.30;99.90;;;;;;5119558;27;20043;-58
2021/12/27 07:27:42;;;;;;;49.55;24.42;;;-0.30;99.90;;;;;;5144314;27;19915;-59
2021/12/27 07:30:11;;;;;;;48.33;24.85;;;-0.30;99.90;;;;;;5143821;27;20050;-60
2021/12/27 07:32:36;;;;;;;57.15;26.70;;;-0.30;99.90;;;;;;5122363;27;20068;-59
2021/12/27 07:35:04;;;;;;;48.37;26.77;;;-0.30;99.90;;;;;;5125009;27;20071;-59
2021/12/27 07:37:29;;;;;;;65.13;25.83;;;-0.30;99.90;;;;;;5125131;27;20054;-60
2021/12/27 07:39:55;;;;;;;58.10;28.33;;;-0.30;99.90;;;;;;5143672;27;20486;-60
2021/12/27 07:42:24;;;;;;;54.08;26.55;;;-0.30;99.90;;;;;;5140693;27;20063;-59
2021/12/27 07:44:50;;;;;;;58.57;26.60;;;-0.30;99.90;;;;;;5133830;27;20343;-61
2021/12/27 07:47:16;;;;;;;65.50;28.10;;;-0.30;99.90;;;;;;5143876;27;20072;-60
2021/12/27 07:49:41;;;;;;;67.93;27.67;;;-0.30;99.90;;;;;;5143732;27;20035;-59
2021/12/27 07:52:08;;;;;;;65.37;28.60;;;-0.20;99.90;;;;;;5124443;27;20127;-60
2021/12/27 07:54:34;;;;;;;65.18;28.27;;;-0.20;99.90;;;;;;5141183;27;20076;-60
2021/12/27 07:57:00;;;;;;;64.88;27.13;;;-0.20;99.90;;;;;;5142483;27;20034;-60
2021/12/27 07:59:27;;;;;;;68.88;29.50;;;-0.30;99.90;;;;;;5140096;27;20377;-60
2021/12/27 08:01:52;;;;;;;61.63;28.13;;;-0.30;99.90;;;;;;5123469;27;20062;-60
2021/12/27 08:04:18;;;;;;;69.70;28.07;;;-0.20;99.90;;;;;;5123828;28;20039;-58
2021/12/27 08:06:44;;;;;;;63.92;28.90;;;-0.20;99.90;;;;;;5124275;28;20047;-59
2021/12/27 08:09:10;;;;;;;75.87;30.23;;;-0.20;99.90;;;;;;5143897;28;20085;-61
2021/12/27 08:11:36;;;;;;;69.40;29.27;;;-0.20;99.90;;;;;;5124679;28;20288;-59
2021/12/27 08:14:03;;;;;;;65.20;30.10;;;-0.20;99.90;;;;;;5142878;28;20049;-60
2021/12/27 08:16:29;;;;;;;63.10;28.10;;;-0.20;99.90;;;;;;5142020;27;20050;-60
2021/12/27 08:18:56;;;;;;;65.72;29.08;;;-0.20;99.90;;;;;;5119808;28;20050;-59
2021/12/27 08:21:23;;;;;;;;;;;-0.20;99.90;;;;;;5125706;28;20047;-60
2021/12/27 08:23:48;;;;;;;69.25;28.02;;;-0.20;99.90;;;;;;5142251;28;19941;-59
2021/12/27 08:26:15;;;;;;;58.40;28.53;;;-0.20;99.90;;;;;;5123938;27;20143;-59
2021/12/27 08:28:42;;;;;;;72.28;29.88;;;-0.10;99.90;;;;;;5129370;27;20318;-57
2021/12/27 08:31:08;;;;;;;74.68;29.67;;;-0.10;99.90;;;;;;5147458;27;20119;-57
2021/12/27 08:33:33;;;;;;;55.77;28.27;;;-0.10;99.90;;;;;;5146987;27;20462;-56
2021/12/27 08:35:59;;;;;;;59.67;27.53;;;-0.10;99.90;;;;;;5145651;27;20122;-58
2021/12/27 08:38:24;;;;;;;69.80;29.57;;;-0.10;99.90;;;;;;5138563;27;20051;-58
2021/12/27 08:40:50;;;;;;;71.80;28.00;;;-0.10;99.90;;;;;;5129408;27;20050;-58
2021/12/27 08:43:16;;;;;;;64.53;28.67;;;-0.10;99.90;;;;;;5146554;27;20103;-58
2021/12/27 08:45:42;;;;;;;68.13;29.73;;;-0.10;99.90;;;;;;5147792;27;20289;-58
2021/12/27 08:48:07;;;;;;;73.07;29.43;;;0.00;99.90;;;;;;5127079;27;20289;-58
2021/12/27 08:50:33;;;;;;;74.93;31.63;;;0.00;99.90;;;;;;5128970;27;20045;-58
2021/12/27 08:52:59;;;;;;;68.50;31.30;;;0.00;99.90;;;;;;5128175;27;20049;-57
2021/12/27 08:55:25;;;;;;;65.00;30.15;;;0.00;99.90;;;;;;5146426;27;20065;-56
2021/12/27 08:57:50;;;;;;;65.07;29.03;;;0.00;99.90;;;;;;5119907;27;20047;-58
2021/12/27 09:00:16;;;;;;;76.50;30.77;;;0.00;99.90;;;;;;5107504;27;20051;-58
2021/12/27 09:02:44;;;;;;;69.95;29.15;;;0.00;99.90;;;;;;5128837;27;20123;-59
2021/12/27 09:05:09;;;;;;;76.65;30.38;;;0.00;99.90;;;;;;5134627;27;20363;-60
2021/12/27 09:07:35;;;;;;;85.45;30.63;;;0.10;99.90;;;;;;5130244;27;20058;-60
2021/12/27 09:10:02;;;;;;;78.75;31.58;;;0.10;99.90;;;;;;5135205;27;20078;-59
2021/12/27 09:12:28;;;;;;;72.20;29.60;;;0.10;99.90;;;;;;5129315;27;20043;-59
2021/12/27 09:14:54;;;;;;;76.65;29.20;;;0.10;99.90;;;;;;5129416;27;20126;-57
2021/12/27 09:17:20;;;;;;;88.30;29.77;;;0.10;99.90;;;;;;5130060;27;20107;-59
2021/12/27 09:19:45;;;;;;;74.10;28.73;;;0.20;99.90;;;;;;5122220;27;20034;-58
2021/12/27 09:22:13;;;;;;;70.88;29.42;;;0.20;99.90;;;;;;5125937;27;20058;-59
2021/12/27 09:24:39;;;;;;;75.85;28.55;;;0.20;99.90;;;;;;5127703;27;20043;-59
2021/12/27 09:27:05;;;;;;;74.88;29.45;;;0.20;99.90;;;;;;5146293;27;20054;-58
2021/12/27 09:29:31;;;;;;;65.93;27.57;;;0.20;99.90;;;;;;5141725;27;20047;-58
2021/12/27 09:31:56;;;;;;;77.53;30.13;;;0.20;99.90;;;;;;5129423;27;20349;-58
2021/12/27 09:34:22;;;;;;;83.63;29.20;;;0.20;99.90;;;;;;5131000;27;20043;-58
2021/12/27 09:36:48;;;;;;;72.38;29.00;;;0.20;99.90;;;;;;5110662;28;20071;-58
2021/12/27 09:39:14;;;;;;;91.80;32.03;;;0.20;99.90;;;;;;5131680;27;20166;-58
2021/12/27 09:41:40;;;;;;;83.33;29.73;;;0.20;99.90;;;;;;5143769;27;20039;-58
2021/12/27 09:44:06;;;;;;;76.15;31.38;;;0.30;99.90;;;;;;5140243;27;20048;-59
2021/12/27 09:46:32;;;;;;;76.00;31.05;;;0.30;99.90;;;;;;5131487;27;20039;-59
2021/12/27 09:49:00;;;;;;;80.03;30.15;;;0.30;99.90;;;;;;5135767;27;20035;-58
2021/12/27 09:51:28;;;;;;;78.55;30.13;;;0.30;99.90;;;;;;5122781;27;20082;-59
2021/12/27 09:53:54;;;;;;;72.72;29.88;;;0.30;99.90;;;;;;5123119;27;20051;-59
2021/12/27 09:56:20;;;;;;;93.38;31.48;;;0.30;99.90;;;;;;5126281;27;20062;-59
2021/12/27 09:58:45;;;;;;;104.00;32.53;;;0.30;99.90;;;;;;5139719;27;20039;-59
2021/12/27 10:01:11;;;;;;;105.43;33.65;;;0.30;99.90;;;;;;5107378;27;20052;-59
2021/12/27 10:03:50;;;;;;;97.40;32.90;;;0.30;99.90;;;;;;5113373;27;20127;-59
2021/12/27 10:06:16;;;;;;;88.25;30.70;;;0.40;99.90;;;;;;5111528;28;20051;-59
2021/12/27 10:08:47;;;;;;;107.88;34.63;;;0.40;99.90;;;;;;5113965;27;20051;-59
2021/12/27 10:11:21;;;;;;;103.28;34.05;;;0.40;99.90;;;;;;5133158;27;21697;-58
2021/12/27 10:14:07;;;;;;;97.95;34.63;;;0.40;99.90;;;;;;5114942;27;20062;-59
2021/12/27 10:16:36;;;;;;;97.82;33.10;;;0.40;99.90;;;;;;5137540;27;20110;-59
2021/12/27 10:19:07;;;;;;;86.90;32.72;;;0.40;99.90;;;;;;5142856;27;20065;-59
2021/12/27 10:21:34;;;;;;;107.20;34.05;;;0.40;99.90;;;;;;5121962;27;20043;-58
2021/12/27 10:24:00;;;;;;;;;;;0.40;99.90;;;;;;5139793;27;20035;-58
2021/12/27 10:26:26;;;;;;;93.20;31.33;;;0.40;99.90;;;;;;5142403;27;19962;-59
2021/12/27 10:29:06;;;;;;;116.00;35.47;;;0.40;99.90;;;;;;5120443;27;20051;-59
2021/12/27 10:31:54;;;;;;;120.78;36.45;;;0.40;99.90;;;;;;5124072;27;20081;-63
2021/12/27 10:34:23;;;;;;;126.65;37.45;;;0.50;99.90;;;;;;5116861;27;20058;-58
2021/12/27 10:37:03;;;;;;;133.85;37.70;;;0.50;99.90;;;;;;5140241;27;20119;-58
2021/12/27 10:39:50;;;;;;;113.15;35.08;;;0.50;99.90;;;;;;5140330;27;20072;-58
2021/12/27 10:42:22;;;;;;;122.75;36.17;;;0.50;99.90;;;;;;5142543;27;20074;-58
2021/12/27 10:44:51;;;;;;;132.90;37.75;;;0.50;99.90;;;;;;5141242;27;20466;-59
2021/12/27 10:47:25;;;;;;;119.97;37.17;;;0.50;99.90;;;;;;5137061;27;20050;-59
2021/12/27 10:49:51;;;;;;;144.88;38.78;;;0.50;99.90;;;;;;5142162;27;20034;-66
2021/12/27 10:52:17;;;;;;;129.88;38.75;;;0.60;99.90;;;;;;5141664;27;20047;-58
2021/12/27 10:54:43;;;;;;;144.68;38.53;;;0.60;99.90;;;;;;5142916;27;20047;-59
2021/12/27 10:57:09;;;;;;;155.90;38.53;;;0.60;99.90;;;;;;5124049;27;20066;-59
2021/12/27 10:59:34;;;;;;;161.03;41.40;;;0.60;99.90;;;;;;5122900;27;20289;-60
2021/12/27 11:02:14;;;;;;;134.30;38.03;;;0.60;99.90;;;;;;5119809;27;20046;-60
2021/12/27 11:04:40;;;;;;;153.63;40.83;;;0.70;99.90;;;;;;5124060;27;20058;-59
2021/12/27 11:07:06;;;;;;;142.68;38.40;;;0.70;99.90;;;;;;5114978;27;20514;-58
2021/12/27 11:09:34;;;;;;;108.90;35.97;;;0.70;99.90;;;;;;5134772;27;20531;-59
2021/12/27 11:12:00;;;;;;;145.57;41.50;;;0.70;99.90;;;;;;5143891;27;20042;-59
2021/12/27 11:14:26;;;;;;;170.05;42.00;;;0.70;99.90;;;;;;5113579;27;20118;-59
2021/12/27 11:16:53;;;;;;;134.63;36.65;;;0.80;99.90;;;;;;5123399;27;20047;-59
2021/12/27 11:19:19;;;;;;;188.82;43.92;;;0.80;99.90;;;;;;5125129;27;20070;-59
2021/12/27 11:21:48;;;;;;;189.30;42.88;;;0.80;99.90;;;;;;5106978;27;20307;-58
2021/12/27 11:24:14;;;;;;;169.05;42.03;;;0.80;99.90;;;;;;5123919;27;20063;-58
2021/12/27 11:26:41;;;;;;;147.45;41.53;;;0.80;99.90;;;;;;5105913;27;20035;-59
2021/12/27 11:29:17;;;;;;;177.98;42.10;;;0.90;99.90;;;;;;5115738;27;20114;-60
2021/12/27 11:31:51;;;;;;;188.00;41.55;;;0.90;99.90;;;;;;5140764;27;20047;-58
2021/12/27 11:34:19;;;;;;;169.77;41.42;;;0.90;99.90;;;;;;5120974;27;20027;-58
2021/12/27 11:36:52;;;;;;;167.73;41.90;;;1.00;99.90;;;;;;5141007;27;20420;-58
2021/12/27 11:39:23;;;;;;;197.00;42.58;;;1.00;99.90;;;;;;5120547;27;20035;-59
2021/12/27 11:41:58;;;;;;;226.52;44.40;;;1.00;99.90;;;;;;5141337;27;20060;-59
2021/12/27 11:44:53;;;;;;;221.75;44.17;;;1.00;99.90;;;;;;5141050;27;20047;-58
2021/12/27 11:47:37;;;;;;;181.10;41.53;;;1.00;99.90;;;;;;5136063;27;20058;-59
2021/12/27 11:50:07;;;;;;;203.13;41.42;;;1.00;99.90;;;;;;5122178;27;20205;-57
2021/12/27 11:52:39;;;;;;;239.70;46.22;;;1.00;99.90;;;;;;5139300;27;20031;-58
2021/12/27 11:55:14;;;;;;;225.32;43.75;;;1.00;99.90;;;;;;5123909;28;20043;-58
2021/12/27 11:57:44;;;;;;;258.67;47.67;;;1.00;99.90;;;;;;5123383;27;20136;-58
2021/12/27 12:00:19;;;;;;;242.95;47.58;;;1.00;99.90;;;;;;5122619;28;20086;-58
2021/12/27 12:02:52;;;;;;;223.23;45.47;;;1.10;99.90;;;;;;5141256;27;20238;-59
2021/12/27 12:05:44;;;;;;;297.75;49.53;;;1.10;99.90;;;;;;5142507;27;20500;-58
2021/12/27 12:08:15;;;;;;;176.32;42.42;;;1.10;99.90;;;;;;5121729;28;20047;-57
2021/12/27 12:10:51;;;;;;;174.68;40.83;;;1.10;99.90;;;;;;5140412;28;20047;-57
2021/12/27 12:13:19;;;;;;;261.83;49.42;;;1.10;99.90;;;;;;5121613;28;20070;-59
2021/12/27 12:16:10;;;;;;;272.95;48.22;;;1.10;99.90;;;;;;5113597;28;20118;-58
2021/12/27 12:18:40;;;;;;;269.73;46.47;;;1.10;99.90;;;;;;5121019;28;20059;-58
2021/12/27 12:21:28;;;;;;;315.98;52.78;;;1.10;99.90;;;;;;5138830;28;20054;-57
2021/12/27 12:23:59;;;;;;;286.67;50.28;;;1.10;99.90;;;;;;5121520;28;20059;-58
2021/12/27 12:26:25;;;;;;;226.27;47.30;;;1.10;99.90;;;;;;5140871;28;20091;-58
2021/12/27 12:29:03;;;;;;;285.15;48.30;;;1.10;99.90;;;;;;5105255;28;20458;-50
2021/12/27 12:31:31;;;;;;;264.60;50.47;;;1.10;99.90;;;;;;5122170;28;20050;-58
2021/12/27 12:34:13;;;;;;;214.68;45.88;;;1.20;99.90;;;;;;5142028;28;20047;-59
2021/12/27 12:36:54;;;;;;;234.00;48.97;;;1.20;99.90;;;;;;5140335;27;20043;-59